KCTZ/CTZ METAR and TAF weather

Enter ICAO airport designator
Station Type Date Time Source
KCTZ METAR 2020/02/20 22:55 UTC NOAA

KCTZ 202255Z AUTO 01010G18KT 5SM OVC010 03/02 A3028 RMK AO2 P0006 T00270023


Station Type Date Time Source
KCTZ Decoded METAR 2020/02/20 22:55 UTC NOAA

Clinton, Sampson County Airport, NC, United States (KCTZ) 34-58-32N 078-21-53W
Feb 20, 2020 - 05:55 PM EST / 2020.02.20 2255 UTC
Wind: from the N (010 degrees) at 12 MPH (10 KT) gusting to 21 MPH (18 KT):0
Visibility: 5 mile(s):0
Sky conditions: overcast
Precipitation last hour: 0.06 inches
Temperature: 36.9 F (2.7 C)
Dew Point: 36.1 F (2.3 C)
Relative Humidity: 97%
Pressure (altimeter): 30.28 in. Hg (1025 hPa)
ob: KCTZ 202255Z AUTO 01010G18KT 5SM OVC010 03/02 A3028 RMK AO2 P0006 T00270023
cycle: 23

Station Type Date Time Source
KCTZ TAF UTC NOAA

Error!

Example: see airport list